Главная страница
METAR-TAF:

METAR-TAF

Аэропорты :

Минеральные Воды, Россия

широта: 44-14N, долгота: 043-04E, высота над уровнем моря: 314 м

Текущие метеонаблюдения

Эта сводка был подготовлена 27 минут назад, в 01:30 UTC
Ветер 4 Узел от западно-северо-западный
Температура 3°C
Влажность 75%
Давление 1026 hPa
Видимость 10 км и более

METAR: URMM 160130Z 29002MPS 9999 NSC 03/M01 Q1026 R12/090070 NOSIG RMK QFE741/0988

Время: 04:57 (01:57 UTC)

Прогноз

Эта сводка был подготовлена 2 часа и 59 минут назад, в 22:58 UTC
Прогноз действительный с 16-го 00 UTC до 16-го 24 UTC
Ветер 2 Узел переменных направлений
Видимость 10 км и более
временами
С 16-го 00 UTC до 16-го 06 UTC
Видимость: 3100 м
Рассеянная облачность на высоте 1100 фута
дымка
изменения
С 16-го 06 UTC до 16-го 07 UTC
Ветер 12 Узел от восточный с порывами до 27 Узел

TAF: URMM 152258Z 1600/1624 VRB01MPS 9999 NSC TX21/1612Z TN01/1603Z TEMPO 1600/1606 3100 BR BKN011 BECMG 1606/1607 09006G14MPS

Метеонаблюдения и прогнозы для более 4000 аэропортов (сводки METAR и TAF).

Имеющиеся станции представлены на карте желтыми и красными точками.

Чтобы увидеть название станции, наведите на нее мышь.

Затем щелкните, чтобы увидеть метеонаблюдения и метеопрогнозы.

Управление картой: чтобы увеличить масштаб, щелкните зеленые кнопки с черным крестиком; чтобы уменьшить масштаб, щелкните зеленую кнопку с тире; для просмотра соседних карт щелкайте зеленые стрелки.


METAR-TAF: